createdAt,value
2019-02-21T00:03:39.808Z,83.10
2019-02-21T00:06:09.763Z,83.60
2019-02-21T00:08:39.851Z,84.00
2019-02-21T00:11:09.956Z,84.10
2019-02-21T00:13:39.903Z,84.20
2019-02-21T00:16:09.791Z,83.60
2019-02-21T00:18:59.458Z,83.50
2019-02-21T00:21:29.702Z,83.20
2019-02-21T00:29:44.059Z,83.10
2019-02-21T00:35:09.427Z,83.40
2019-02-21T00:37:39.340Z,83.50
2019-02-21T00:40:09.363Z,83.80
2019-02-21T00:42:39.352Z,83.80
2019-02-21T00:45:22.972Z,84.40
2019-02-21T01:28:48.732Z,84.80
2019-02-21T01:42:38.450Z,84.90
2019-02-21T01:45:28.062Z,84.80
2019-02-21T01:47:57.895Z,84.90
2019-02-21T01:50:47.444Z,84.90
2019-02-21T01:53:17.367Z,84.80
2019-02-21T01:55:47.288Z,84.70
2019-02-21T01:58:17.338Z,85.00
2019-02-21T02:00:47.184Z,85.00
2019-02-21T02:03:36.996Z,84.90
2019-02-21T02:06:26.475Z,84.90
2019-02-21T02:08:56.478Z,84.90
2019-02-21T02:11:26.554Z,85.40
2019-02-21T02:16:33.426Z,85.30
2019-02-21T02:19:03.279Z,85.30
2019-02-21T02:21:33.253Z,85.50
2019-02-21T02:29:59.869Z,85.30
2019-02-21T02:32:49.387Z,85.30
2019-02-21T02:35:20.683Z,86.20
2019-02-21T02:38:09.972Z,85.80
2019-02-21T02:40:59.395Z,86.00
2019-02-21T02:43:49.022Z,86.10
2019-02-21T02:46:38.553Z,86.40
2019-02-21T02:49:28.119Z,86.40
2019-02-21T02:51:58.136Z,86.40
2019-02-21T02:54:28.188Z,86.40
2019-02-21T02:57:17.802Z,86.10
2019-02-21T02:59:48.877Z,86.30
2019-02-21T03:02:19.815Z,86.40
2019-02-21T03:04:49.767Z,86.40
2019-02-21T03:07:19.825Z,86.30
2019-02-21T03:09:49.772Z,86.40
2019-02-21T03:12:19.556Z,86.70
2019-02-21T03:15:10.331Z,86.40
2019-02-21T03:17:40.244Z,86.50
2019-02-21T03:20:10.526Z,86.50
2019-02-21T03:22:59.976Z,86.10
2019-02-21T03:25:30.305Z,85.90
2019-02-21T03:28:00.451Z,86.50
2019-02-21T03:36:06.862Z,86.60
2019-02-21T03:38:56.423Z,86.50
2019-02-21T03:41:26.832Z,86.60
2019-02-21T03:43:56.698Z,86.60
2019-02-21T03:46:26.949Z,86.60
2019-02-21T03:49:16.333Z,86.70
2019-02-21T03:51:46.407Z,86.70
2019-02-21T04:02:53.919Z,86.60
2019-02-21T04:05:43.386Z,86.20
2019-02-21T04:11:09.476Z,86.50
2019-02-21T04:13:39.408Z,86.50
2019-02-21T04:16:29.223Z,86.40
2019-02-21T04:19:18.955Z,86.80
2019-02-21T04:22:01.655Z,87.50
2019-02-21T04:24:33.988Z,87.60
2019-02-21T04:27:04.013Z,87.60
2019-02-21T04:29:33.928Z,87.60
2019-02-21T04:32:03.776Z,88.00
2019-02-21T04:34:33.640Z,88.10
2019-02-21T04:37:03.516Z,88.50
2019-02-21T04:39:33.407Z,88.50
2019-02-21T04:42:03.373Z,88.40
2019-02-21T04:44:33.250Z,88.20
2019-02-21T04:47:03.287Z,88.20
2019-02-21T04:49:33.186Z,88.20
2019-02-21T04:52:03.022Z,88.10
2019-02-21T04:54:32.929Z,88.30
2019-02-21T04:57:02.676Z,88.20
2019-02-21T04:59:32.525Z,88.00
2019-02-21T05:02:02.481Z,87.70
2019-02-21T05:04:32.459Z,87.30
2019-02-21T05:07:02.351Z,86.50
2019-02-21T05:09:32.225Z,86.90
2019-02-21T05:12:02.356Z,86.90
2019-02-21T05:14:32.533Z,86.70
2019-02-21T05:17:02.521Z,86.60
2019-02-21T05:19:32.510Z,86.20
2019-02-21T05:22:02.469Z,85.80
2019-02-21T05:24:32.534Z,86.20
2019-02-21T05:27:09.675Z,86.50
2019-02-21T05:29:39.604Z,86.80
2019-02-21T05:32:40.203Z,86.20
2019-02-21T05:35:20.478Z,85.90
2019-02-21T05:38:03.277Z,86.00
2019-02-21T05:41:08.003Z,86.70
2019-02-21T05:43:59.978Z,86.70
2019-02-21T05:46:52.163Z,86.70
2019-02-21T05:49:47.670Z,86.70
2019-02-21T05:52:25.297Z,86.60
2019-02-21T05:54:58.995Z,86.60
2019-02-21T05:57:54.272Z,86.60
2019-02-21T06:00:44.821Z,86.90
2019-02-21T06:03:29.070Z,87.60
2019-02-21T06:06:07.971Z,87.50
2019-02-21T06:09:15.443Z,87.80
2019-02-21T06:12:03.689Z,88.00
2019-02-21T06:14:44.110Z,88.10
2019-02-21T06:17:34.300Z,88.30
2019-02-21T06:20:36.068Z,87.90
2019-02-21T06:23:25.715Z,88.10
2019-02-21T06:26:08.348Z,88.20
2019-02-21T06:28:53.936Z,88.00
2019-02-21T06:31:24.081Z,87.70
2019-02-21T06:33:55.400Z,88.10
2019-02-21T06:36:26.210Z,88.20
2019-02-21T06:38:56.353Z,88.20
2019-02-21T06:41:26.336Z,88.10
2019-02-21T06:43:57.012Z,88.40
2019-02-21T06:46:28.910Z,88.20
2019-02-21T06:48:59.909Z,88.50
2019-02-21T06:51:30.262Z,88.80
2019-02-21T06:54:00.373Z,88.40
2019-02-21T06:56:30.383Z,88.10
2019-02-21T06:59:03.244Z,87.80
2019-02-21T07:01:33.297Z,86.70
2019-02-21T07:04:03.278Z,86.70
2019-02-21T07:06:33.187Z,86.80
2019-02-21T07:09:04.771Z,86.80
2019-02-21T07:11:34.994Z,86.80
2019-02-21T07:14:04.921Z,86.80
2019-02-21T07:16:37.245Z,86.90
2019-02-21T07:19:06.834Z,86.50
2019-02-21T07:21:36.879Z,86.10
2019-02-21T07:24:07.144Z,85.80
2019-02-21T07:26:37.305Z,85.80
2019-02-21T07:29:07.638Z,83.80
2019-02-21T07:31:37.492Z,83.50
2019-02-21T07:34:07.397Z,83.10
2019-02-21T07:36:37.579Z,83.20
2019-02-21T07:39:16.949Z,84.10
2019-02-21T07:41:41.528Z,83.10
2019-02-21T07:44:12.314Z,82.90
2019-02-21T07:46:42.592Z,82.90
2019-02-21T07:49:12.527Z,82.90
2019-02-21T07:51:42.372Z,83.00
2019-02-21T07:54:12.215Z,82.50
2019-02-21T07:56:42.523Z,81.90
2019-02-21T07:59:13.728Z,81.30
2019-02-21T08:01:43.609Z,81.10
2019-02-21T08:04:13.487Z,81.00
2019-02-21T08:06:43.524Z,81.10
2019-02-21T08:09:13.721Z,80.60
2019-02-21T08:11:43.636Z,80.40
2019-02-21T08:14:16.016Z,80.00
2019-02-21T08:16:46.019Z,79.50
2019-02-21T08:19:15.923Z,79.50
2019-02-21T08:21:46.182Z,79.60
2019-02-21T08:24:16.130Z,79.70
2019-02-21T08:26:46.043Z,79.80
2019-02-21T08:29:15.989Z,80.00
2019-02-21T08:31:46.574Z,78.50
2019-02-21T08:34:24.010Z,77.50
2019-02-21T08:36:53.944Z,76.20
2019-02-21T08:39:24.062Z,76.30
2019-02-21T08:41:55.181Z,75.40
2019-02-21T08:44:25.259Z,75.00
2019-02-21T08:46:55.127Z,71.10
2019-02-21T08:49:25.014Z,70.20
2019-02-21T08:51:55.297Z,70.40
2019-02-21T08:54:25.389Z,70.80
2019-02-21T08:56:55.314Z,71.40
2019-02-21T08:59:25.254Z,71.40
2019-02-21T09:01:55.165Z,71.00
2019-02-21T09:04:27.787Z,69.90
2019-02-21T09:06:56.868Z,69.40
2019-02-21T09:09:26.874Z,69.20
2019-02-21T09:11:56.859Z,68.50
2019-02-21T09:14:26.823Z,68.50
2019-02-21T09:16:56.732Z,67.90
2019-02-21T09:19:27.002Z,67.70
2019-02-21T09:21:56.980Z,68.00
2019-02-21T09:24:38.184Z,67.50
2019-02-21T09:27:00.261Z,67.20
2019-02-21T09:29:30.227Z,66.70
2019-02-21T09:32:00.010Z,65.90
2019-02-21T09:34:29.886Z,65.60
2019-02-21T09:36:59.792Z,65.40
2019-02-21T09:39:29.687Z,64.50
2019-02-21T09:41:59.617Z,64.20
2019-02-21T09:44:29.609Z,63.30
2019-02-21T09:46:59.571Z,63.50
2019-02-21T09:49:29.589Z,63.50
2019-02-21T09:51:59.432Z,63.50
2019-02-21T09:54:29.371Z,63.50
2019-02-21T09:56:59.262Z,63.60
2019-02-21T09:59:29.169Z,63.60
2019-02-21T10:01:59.257Z,63.70
2019-02-21T10:04:32.015Z,63.80
2019-02-21T10:07:00.930Z,62.60
2019-02-21T10:09:30.910Z,62.30
2019-02-21T10:12:00.854Z,61.70
2019-02-21T10:14:30.736Z,61.00
2019-02-21T10:17:00.694Z,60.10
2019-02-21T10:19:30.583Z,60.10
2019-02-21T10:22:00.479Z,60.10
2019-02-21T10:24:30.559Z,60.30
2019-02-21T10:27:00.619Z,60.70
2019-02-21T10:29:30.478Z,60.40
2019-02-21T10:32:00.318Z,60.10
2019-02-21T10:34:30.244Z,60.00
2019-02-21T10:37:00.167Z,59.90
2019-02-21T10:39:30.015Z,59.90
2019-02-21T10:41:59.953Z,59.40
2019-02-21T10:44:29.864Z,58.40
2019-02-21T10:46:59.718Z,58.30
2019-02-21T10:49:29.824Z,57.80
2019-02-21T10:52:00.083Z,58.20
2019-02-21T10:54:30.954Z,57.20
2019-02-21T10:57:01.764Z,57.00
2019-02-21T10:59:31.574Z,56.90
2019-02-21T11:02:01.488Z,56.70
2019-02-21T11:04:31.713Z,55.90
2019-02-21T11:07:01.804Z,56.00
2019-02-21T11:09:31.832Z,55.50
2019-02-21T11:12:01.815Z,54.80
2019-02-21T11:14:31.870Z,55.00
2019-02-21T11:19:52.414Z,53.90
2019-02-21T11:22:25.743Z,54.70
2019-02-21T11:25:17.381Z,54.70
2019-02-21T11:28:07.065Z,54.80
2019-02-21T11:31:27.723Z,54.60
2019-02-21T11:34:38.061Z,54.50
2019-02-21T11:38:10.988Z,54.40
2019-02-21T11:41:04.110Z,53.80
2019-02-21T11:43:56.171Z,53.10
2019-02-21T11:46:46.422Z,52.50
2019-02-21T11:49:44.027Z,53.00
2019-02-21T11:56:55.767Z,52.60
2019-02-21T12:03:45.710Z,51.50
2019-02-21T12:06:15.675Z,51.60
2019-02-21T12:11:23.060Z,50.80
2019-02-21T12:13:53.207Z,51.10
2019-02-21T12:16:25.079Z,50.50
2019-02-21T12:18:55.610Z,50.70
2019-02-21T12:21:39.340Z,50.20
2019-02-21T12:24:28.778Z,49.50
2019-02-21T12:27:18.470Z,48.20
2019-02-21T12:29:48.534Z,48.70
2019-02-21T12:32:38.873Z,48.10
2019-02-21T12:35:09.474Z,48.80
2019-02-21T12:37:39.609Z,48.20
2019-02-21T12:40:13.684Z,47.90
2019-02-21T12:43:06.714Z,47.40
2019-02-21T12:45:39.031Z,47.20
2019-02-21T12:48:09.395Z,46.90
2019-02-21T12:50:59.265Z,47.10
2019-02-21T12:53:49.121Z,46.20
2019-02-21T12:56:39.023Z,46.50
2019-02-21T12:59:09.558Z,45.80
2019-02-21T13:01:59.476Z,46.00
2019-02-21T13:04:29.874Z,46.10
2019-02-21T13:07:19.699Z,46.60
2019-02-21T13:10:02.855Z,46.40
2019-02-21T13:12:52.983Z,47.00
2019-02-21T13:15:42.557Z,47.70
2019-02-21T13:18:23.333Z,46.90
2019-02-21T13:20:53.670Z,47.40
2019-02-21T13:23:24.073Z,47.70
2019-02-21T13:26:13.808Z,48.50
2019-02-21T13:29:04.070Z,48.80
2019-02-21T13:31:54.846Z,48.80
2019-02-21T13:35:06.217Z,49.50
2019-02-21T13:37:56.596Z,48.90
2019-02-21T13:40:51.982Z,49.00
2019-02-21T13:43:40.073Z,49.10
2019-02-21T13:46:37.250Z,48.20
2019-02-21T13:49:42.161Z,48.10
2019-02-21T13:52:12.792Z,49.20
2019-02-21T13:54:42.943Z,49.10
2019-02-21T13:57:13.401Z,49.10
2019-02-21T13:59:43.902Z,49.10
2019-02-21T14:02:33.855Z,49.10
2019-02-21T14:05:05.447Z,50.20
2019-02-21T14:07:37.336Z,49.20
2019-02-21T14:10:09.304Z,49.10
2019-02-21T14:12:59.113Z,49.60
2019-02-21T14:15:55.048Z,49.60
2019-02-21T14:18:44.540Z,50.80
2019-02-21T14:21:36.683Z,50.60
2019-02-21T14:24:36.266Z,50.70
2019-02-21T14:27:39.522Z,50.60
2019-02-21T14:30:37.538Z,50.90
2019-02-21T14:33:27.177Z,50.10
2019-02-21T14:38:57.672Z,49.80
2019-02-21T14:42:05.909Z,50.10
2019-02-21T14:48:36.365Z,49.90
2019-02-21T14:51:26.287Z,49.20
2019-02-21T14:57:08.632Z,48.90
2019-02-21T15:03:22.054Z,48.60
2019-02-21T15:06:27.646Z,48.60
2019-02-21T15:12:26.485Z,49.50
2019-02-21T15:15:22.300Z,49.30
2019-02-21T15:21:19.018Z,49.70
2019-02-21T15:24:21.937Z,49.20
2019-02-21T15:27:50.670Z,49.20
2019-02-21T15:30:23.350Z,49.20
2019-02-21T15:36:38.000Z,49.40
2019-02-21T15:43:30.945Z,49.40
2019-02-21T15:46:43.120Z,49.50
2019-02-21T15:49:39.137Z,49.50
2019-02-21T15:52:28.688Z,50.00
2019-02-21T15:54:58.798Z,50.10
2019-02-21T15:58:04.648Z,50.10
2019-02-21T16:01:06.028Z,50.10
2019-02-21T16:03:57.221Z,50.40
2019-02-21T16:10:01.475Z,50.80
2019-02-21T16:12:31.385Z,50.90
2019-02-21T16:15:21.143Z,50.90
2019-02-21T16:17:51.519Z,50.60
2019-02-21T16:20:21.633Z,51.40
2019-02-21T16:23:03.758Z,51.50
2019-02-21T16:25:53.353Z,51.70
2019-02-21T16:28:24.320Z,52.10
2019-02-21T16:31:14.090Z,52.40
2019-02-21T16:33:44.109Z,52.80
2019-02-21T16:36:33.810Z,53.00
2019-02-21T16:39:23.810Z,53.20
2019-02-21T16:42:13.681Z,53.50
2019-02-21T16:45:03.184Z,53.50
2019-02-21T16:47:52.756Z,53.30
2019-02-21T16:50:42.667Z,53.50
2019-02-21T16:53:32.335Z,53.50
2019-02-21T16:56:02.644Z,53.60
2019-02-21T16:58:52.182Z,53.90
2019-02-21T17:01:42.015Z,53.70
2019-02-21T17:04:31.547Z,54.00
2019-02-21T17:07:13.324Z,54.40
2019-02-21T17:09:54.539Z,54.70
2019-02-21T17:12:37.342Z,55.30
2019-02-21T17:15:08.998Z,55.90
2019-02-21T17:17:40.175Z,56.20
2019-02-21T17:20:16.658Z,57.00
2019-02-21T17:22:46.573Z,57.60
2019-02-21T17:25:17.514Z,58.10
2019-02-21T17:27:47.723Z,58.90
2019-02-21T17:30:17.844Z,59.50
2019-02-21T17:32:47.815Z,60.00
2019-02-21T17:35:17.981Z,60.40
2019-02-21T17:37:48.142Z,60.80
2019-02-21T17:40:19.330Z,61.30
2019-02-21T17:42:50.448Z,61.40
2019-02-21T17:45:21.054Z,61.80
2019-02-21T17:47:51.044Z,62.00
2019-02-21T17:50:21.047Z,62.20
2019-02-21T17:52:51.098Z,62.30
2019-02-21T17:55:21.254Z,62.50
2019-02-21T17:57:51.193Z,62.40
2019-02-21T18:00:26.452Z,62.20
2019-02-21T18:02:56.586Z,62.10
2019-02-21T18:05:27.183Z,61.70
2019-02-21T18:07:57.542Z,61.60
2019-02-21T18:10:31.686Z,61.30
2019-02-21T18:13:02.477Z,60.90
2019-02-21T18:15:32.975Z,60.60
2019-02-21T18:18:07.719Z,60.50
2019-02-21T18:20:40.557Z,60.30
2019-02-21T18:23:12.500Z,60.10
2019-02-21T18:25:48.326Z,60.00
2019-02-21T18:28:18.344Z,59.60
2019-02-21T18:30:48.347Z,58.90
2019-02-21T18:33:19.070Z,59.20
2019-02-21T18:35:51.084Z,59.60
2019-02-21T18:38:21.277Z,59.70
2019-02-21T18:40:55.505Z,59.50
2019-02-21T18:43:29.721Z,59.70
2019-02-21T18:45:59.574Z,60.70
2019-02-21T18:48:29.761Z,60.70
2019-02-21T18:51:00.588Z,60.70
2019-02-21T18:53:31.127Z,60.30
2019-02-21T18:56:01.694Z,60.20
2019-02-21T18:58:32.130Z,59.40
2019-02-21T19:01:04.134Z,59.20
2019-02-21T19:03:47.279Z,58.70
2019-02-21T19:06:34.486Z,58.60
2019-02-21T19:09:08.124Z,59.40
2019-02-21T19:11:38.428Z,59.80
2019-02-21T19:14:08.585Z,59.70
2019-02-21T19:16:44.704Z,60.10
2019-02-21T19:19:16.252Z,60.30
2019-02-21T19:21:48.385Z,61.20
2019-02-21T19:24:19.023Z,60.40
2019-02-21T19:26:49.199Z,60.30
2019-02-21T19:29:19.896Z,60.10
2019-02-21T19:31:51.468Z,60.00
2019-02-21T19:34:22.890Z,60.10
2019-02-21T19:36:54.535Z,59.50
2019-02-21T19:39:25.069Z,60.60
2019-02-21T19:41:55.235Z,59.80
2019-02-21T19:44:25.411Z,59.80
2019-02-21T19:46:56.036Z,59.90
2019-02-21T19:49:27.299Z,60.00
2019-02-21T19:51:57.398Z,60.00
2019-02-21T19:54:27.646Z,60.40
2019-02-21T19:56:57.844Z,60.90
2019-02-21T19:59:28.177Z,61.10
2019-02-21T20:01:58.118Z,61.40
2019-02-21T20:04:28.531Z,61.90
2019-02-21T20:06:58.831Z,62.20
2019-02-21T20:09:29.529Z,64.20
2019-02-21T20:11:59.743Z,64.20
2019-02-21T20:14:30.031Z,64.20
2019-02-21T20:17:00.598Z,64.20
2019-02-21T20:22:01.369Z,64.80
2019-02-21T20:24:31.655Z,64.20
2019-02-21T20:27:02.688Z,64.40
2019-02-21T20:29:37.368Z,64.70
2019-02-21T20:32:08.668Z,65.10
2019-02-21T20:34:39.141Z,65.50
2019-02-21T20:37:09.515Z,65.50
2019-02-21T20:39:39.427Z,65.80
2019-02-21T20:42:09.427Z,65.80
2019-02-21T20:44:39.581Z,65.80
2019-02-21T20:47:10.023Z,66.00
2019-02-21T20:49:39.906Z,65.80
2019-02-21T20:52:10.776Z,65.80
2019-02-21T20:54:40.779Z,65.90
2019-02-21T20:57:10.758Z,65.70
2019-02-21T20:59:40.819Z,65.70
2019-02-21T21:02:10.759Z,65.60
2019-02-21T21:04:40.784Z,65.50
2019-02-21T21:07:11.005Z,65.70
2019-02-21T21:09:41.093Z,65.70
2019-02-21T21:12:11.016Z,65.90
2019-02-21T21:14:42.144Z,66.30
2019-02-21T21:17:12.335Z,66.30
2019-02-21T21:19:42.697Z,66.20
2019-02-21T21:22:13.200Z,66.20
2019-02-21T21:24:43.956Z,66.40
2019-02-21T21:27:16.558Z,66.30
2019-02-21T21:29:47.043Z,66.10
2019-02-21T21:32:17.374Z,66.00
2019-02-21T21:34:47.624Z,66.20
2019-02-21T21:37:17.837Z,66.20
2019-02-21T21:39:47.863Z,66.20
2019-02-21T21:42:18.229Z,66.10
2019-02-21T21:44:48.537Z,66.20
2019-02-21T21:47:18.551Z,66.00
2019-02-21T21:49:48.591Z,66.00
2019-02-21T21:52:31.567Z,65.90
2019-02-21T21:55:01.878Z,65.90
2019-02-21T21:57:32.263Z,65.70
2019-02-21T22:00:03.908Z,65.90
2019-02-21T22:02:34.100Z,65.70
2019-02-21T22:05:05.237Z,65.40
2019-02-21T22:07:35.283Z,65.40
2019-02-21T22:10:08.399Z,65.50
2019-02-21T22:12:38.593Z,65.70
2019-02-21T22:15:11.378Z,65.90
2019-02-21T22:17:42.174Z,66.00
2019-02-21T22:20:12.629Z,66.00
2019-02-21T22:22:42.543Z,66.10
2019-02-21T22:25:13.051Z,66.00
2019-02-21T22:27:44.058Z,66.00
2019-02-21T22:30:15.297Z,65.00
2019-02-21T22:32:45.326Z,66.20
2019-02-21T22:35:15.345Z,65.00
2019-02-21T22:37:46.387Z,65.00
2019-02-21T22:40:16.319Z,64.80
2019-02-21T22:42:46.776Z,64.80
2019-02-21T22:45:16.763Z,64.80
2019-02-21T22:47:46.779Z,64.80
2019-02-21T22:50:16.796Z,64.60
2019-02-21T22:52:46.948Z,64.80
2019-02-21T22:55:17.853Z,64.80
2019-02-21T22:57:48.040Z,64.80
2019-02-21T23:01:04.027Z,64.80
2019-02-21T23:04:21.446Z,64.70
2019-02-21T23:07:26.177Z,64.90
2019-02-21T23:09:56.182Z,65.20
2019-02-21T23:12:26.141Z,65.10
2019-02-21T23:14:56.180Z,65.10
2019-02-21T23:17:46.333Z,65.20
2019-02-21T23:20:32.202Z,65.30
2019-02-21T23:23:22.276Z,65.30
2019-02-21T23:25:52.724Z,65.30
2019-02-21T23:28:42.504Z,65.40
2019-02-21T23:31:52.060Z,65.40
2019-02-21T23:34:44.116Z,65.70
2019-02-21T23:37:34.129Z,65.60
2019-02-21T23:40:24.001Z,65.80
2019-02-21T23:43:14.181Z,65.70
2019-02-21T23:46:03.862Z,65.70
2019-02-21T23:48:34.589Z,65.80
2019-02-21T23:51:05.062Z,65.80
2019-02-21T23:53:35.808Z,65.80
2019-02-21T23:56:06.593Z,65.80
2019-02-21T23:58:56.605Z,66.10
